Terminal Aerodrome Forecast
Issued by NWS

Home | Current Version | Previous Version | Graphics & Text | Print | Product List | Glossary On
Versions: 1 2 3 4 5 6 7 8 9 10 11 12 13 14 15 16 17 18 19
358
FTUS43 KGRB 171137
TAFMTW
TAF
KMTW 171137Z 1712/1812 16008KT P6SM OVC015
     FM171400 17011G16KT P6SM OVC015
     FM171500 17012G21KT P6SM OVC025
     FM171800 18015G25KT P6SM -RA OVC020
     FM180000 18007KT 4SM -RA BR OVC008
     FM180300 20005KT 1 1/2SM -RA BR OVC003
     FM180800 32009KT 4SM -RA BR OVC008=

USA.gov is the U.S. government's official web portal to all federal, state and local government web resources and services.